sensor_id;sensor_type;location;lat;lon;timestamp;temperature;humidity
782;DHT22;374;52.568;13.402;2023-05-23T00:01:29;19.90;58.00
782;DHT22;374;52.568;13.402;2023-05-23T00:03:56;19.80;58.00
782;DHT22;374;52.568;13.402;2023-05-23T00:06:22;19.80;58.10
782;DHT22;374;52.568;13.402;2023-05-23T00:08:47;19.80;58.10
782;DHT22;374;52.568;13.402;2023-05-23T00:11:13;19.70;58.40
782;DHT22;374;52.568;13.402;2023-05-23T00:13:40;19.70;58.50
782;DHT22;374;52.568;13.402;2023-05-23T00:16:05;19.60;58.80
782;DHT22;374;52.568;13.402;2023-05-23T00:18:34;19.60;58.60
782;DHT22;374;52.568;13.402;2023-05-23T00:21:00;19.60;58.50
782;DHT22;374;52.568;13.402;2023-05-23T00:23:26;19.60;58.60
782;DHT22;374;52.568;13.402;2023-05-23T00:25:54;19.60;59.20
782;DHT22;374;52.568;13.402;2023-05-23T00:28:20;19.60;58.70
782;DHT22;374;52.568;13.402;2023-05-23T00:30:46;19.60;58.70
782;DHT22;374;52.568;13.402;2023-05-23T00:33:13;19.60;58.50
782;DHT22;374;52.568;13.402;2023-05-23T00:35:40;19.60;58.60
782;DHT22;374;52.568;13.402;2023-05-23T00:38:06;19.50;58.60
782;DHT22;374;52.568;13.402;2023-05-23T00:40:32;19.50;58.70
782;DHT22;374;52.568;13.402;2023-05-23T00:42:58;19.50;58.70
782;DHT22;374;52.568;13.402;2023-05-23T00:45:24;19.50;58.70
782;DHT22;374;52.568;13.402;2023-05-23T00:47:50;19.40;58.70
782;DHT22;374;52.568;13.402;2023-05-23T00:50:16;19.40;58.70
782;DHT22;374;52.568;13.402;2023-05-23T00:52:43;19.40;58.80
782;DHT22;374;52.568;13.402;2023-05-23T00:55:09;19.40;58.80
782;DHT22;374;52.568;13.402;2023-05-23T00:57:36;19.40;58.90
782;DHT22;374;52.568;13.402;2023-05-23T01:00:11;19.30;58.90
782;DHT22;374;52.568;13.402;2023-05-23T01:02:44;19.30;59.00
782;DHT22;374;52.568;13.402;2023-05-23T01:05:12;19.20;59.00
782;DHT22;374;52.568;13.402;2023-05-23T01:07:42;19.20;59.00
782;DHT22;374;52.568;13.402;2023-05-23T01:10:08;19.10;59.00
782;DHT22;374;52.568;13.402;2023-05-23T01:12:54;19.10;59.10
782;DHT22;374;52.568;13.402;2023-05-23T01:15:24;19.10;59.20
782;DHT22;374;52.568;13.402;2023-05-23T01:17:58;19.10;59.30
782;DHT22;374;52.568;13.402;2023-05-23T01:20:33;19.10;59.20
782;DHT22;374;52.568;13.402;2023-05-23T01:23:45;19.10;59.20
782;DHT22;374;52.568;13.402;2023-05-23T01:26:40;19.10;59.30
782;DHT22;374;52.568;13.402;2023-05-23T01:29:10;19.10;59.40
782;DHT22;374;52.568;13.402;2023-05-23T01:31:45;19.10;59.40
782;DHT22;374;52.568;13.402;2023-05-23T01:34:12;19.10;59.60
782;DHT22;374;52.568;13.402;2023-05-23T01:36:42;19.00;59.50
782;DHT22;374;52.568;13.402;2023-05-23T01:39:10;19.00;59.60
782;DHT22;374;52.568;13.402;2023-05-23T01:41:36;19.00;59.70
782;DHT22;374;52.568;13.402;2023-05-23T01:44:02;19.00;59.60
782;DHT22;374;52.568;13.402;2023-05-23T01:46:28;19.00;59.70
782;DHT22;374;52.568;13.402;2023-05-23T01:48:56;19.00;59.70
782;DHT22;374;52.568;13.402;2023-05-23T01:51:22;19.00;59.80
782;DHT22;374;52.568;13.402;2023-05-23T01:53:49;19.00;59.80
782;DHT22;374;52.568;13.402;2023-05-23T01:56:16;19.10;60.00
782;DHT22;374;52.568;13.402;2023-05-23T01:58:41;19.10;60.10
782;DHT22;374;52.568;13.402;2023-05-23T02:01:08;19.10;59.80
782;DHT22;374;52.568;13.402;2023-05-23T02:03:34;19.10;60.00
782;DHT22;374;52.568;13.402;2023-05-23T02:05:59;19.00;60.00
782;DHT22;374;52.568;13.402;2023-05-23T02:08:25;19.00;59.90
782;DHT22;374;52.568;13.402;2023-05-23T02:10:50;18.90;60.00
782;DHT22;374;52.568;13.402;2023-05-23T02:13:16;19.00;60.30
782;DHT22;374;52.568;13.402;2023-05-23T02:15:41;18.90;60.30
782;DHT22;374;52.568;13.402;2023-05-23T02:18:07;18.90;60.70
782;DHT22;374;52.568;13.402;2023-05-23T02:20:33;18.90;60.60
782;DHT22;374;52.568;13.402;2023-05-23T02:22:58;18.90;60.90
782;DHT22;374;52.568;13.402;2023-05-23T02:25:24;19.00;61.00
782;DHT22;374;52.568;13.402;2023-05-23T02:27:49;19.00;61.00
782;DHT22;374;52.568;13.402;2023-05-23T02:30:15;19.00;61.00
782;DHT22;374;52.568;13.402;2023-05-23T02:32:40;19.00;61.90
782;DHT22;374;52.568;13.402;2023-05-23T02:35:06;19.00;62.00
782;DHT22;374;52.568;13.402;2023-05-23T02:37:31;19.00;62.30
782;DHT22;374;52.568;13.402;2023-05-23T02:39:57;19.00;62.50
782;DHT22;374;52.568;13.402;2023-05-23T02:42:22;18.90;62.50
782;DHT22;374;52.568;13.402;2023-05-23T02:44:48;18.90;62.80
782;DHT22;374;52.568;13.402;2023-05-23T02:47:13;18.90;62.90
782;DHT22;374;52.568;13.402;2023-05-23T02:49:39;18.90;63.00
782;DHT22;374;52.568;13.402;2023-05-23T02:52:06;18.80;63.10
782;DHT22;374;52.568;13.402;2023-05-23T02:54:31;18.80;63.30
782;DHT22;374;52.568;13.402;2023-05-23T02:56:57;18.80;63.40
782;DHT22;374;52.568;13.402;2023-05-23T02:59:22;18.80;63.70
782;DHT22;374;52.568;13.402;2023-05-23T03:01:48;18.80;63.80
782;DHT22;374;52.568;13.402;2023-05-23T03:04:13;18.80;63.80
782;DHT22;374;52.568;13.402;2023-05-23T03:06:39;18.70;63.60
782;DHT22;374;52.568;13.402;2023-05-23T03:09:07;18.70;63.40
782;DHT22;374;52.568;13.402;2023-05-23T03:11:33;18.70;63.50
782;DHT22;374;52.568;13.402;2023-05-23T03:13:58;18.70;63.70
782;DHT22;374;52.568;13.402;2023-05-23T03:16:24;18.60;63.70
782;DHT22;374;52.568;13.402;2023-05-23T03:18:49;18.60;64.10
782;DHT22;374;52.568;13.402;2023-05-23T03:21:15;18.60;64.10
782;DHT22;374;52.568;13.402;2023-05-23T03:23:40;18.60;64.10
782;DHT22;374;52.568;13.402;2023-05-23T03:26:06;18.60;64.30
782;DHT22;374;52.568;13.402;2023-05-23T03:28:31;18.60;64.40
782;DHT22;374;52.568;13.402;2023-05-23T03:30:57;18.60;64.90
782;DHT22;374;52.568;13.402;2023-05-23T03:33:23;18.50;65.30
782;DHT22;374;52.568;13.402;2023-05-23T03:35:49;18.50;65.30
782;DHT22;374;52.568;13.402;2023-05-23T03:38:15;18.40;65.50
782;DHT22;374;52.568;13.402;2023-05-23T03:40:40;18.40;65.40
782;DHT22;374;52.568;13.402;2023-05-23T03:43:08;18.50;65.60
782;DHT22;374;52.568;13.402;2023-05-23T03:45:33;18.50;65.50
782;DHT22;374;52.568;13.402;2023-05-23T03:47:59;18.50;65.60
782;DHT22;374;52.568;13.402;2023-05-23T03:50:26;18.50;65.40
782;DHT22;374;52.568;13.402;2023-05-23T03:52:52;18.50;65.50
782;DHT22;374;52.568;13.402;2023-05-23T03:55:19;18.50;65.30
782;DHT22;374;52.568;13.402;2023-05-23T03:57:47;18.50;65.50
782;DHT22;374;52.568;13.402;2023-05-23T04:00:13;18.50;65.50
782;DHT22;374;52.568;13.402;2023-05-23T04:02:38;18.50;66.10
782;DHT22;374;52.568;13.402;2023-05-23T04:05:05;18.50;66.30
782;DHT22;374;52.568;13.402;2023-05-23T04:07:31;18.50;66.50
782;DHT22;374;52.568;13.402;2023-05-23T04:09:59;18.50;66.50
782;DHT22;374;52.568;13.402;2023-05-23T04:12:24;18.50;66.80
782;DHT22;374;52.568;13.402;2023-05-23T04:14:50;18.50;66.80
782;DHT22;374;52.568;13.402;2023-05-23T04:17:15;18.50;66.50
782;DHT22;374;52.568;13.402;2023-05-23T04:19:41;18.50;66.70
782;DHT22;374;52.568;13.402;2023-05-23T04:22:06;18.50;67.00
782;DHT22;374;52.568;13.402;2023-05-23T04:24:32;18.50;66.80
782;DHT22;374;52.568;13.402;2023-05-23T04:26:57;18.50;66.70
782;DHT22;374;52.568;13.402;2023-05-23T04:29:23;18.50;67.10
782;DHT22;374;52.568;13.402;2023-05-23T04:31:50;18.50;67.30
782;DHT22;374;52.568;13.402;2023-05-23T04:34:16;18.40;67.40
782;DHT22;374;52.568;13.402;2023-05-23T04:36:41;18.30;66.90
782;DHT22;374;52.568;13.402;2023-05-23T04:39:09;18.30;67.60
782;DHT22;374;52.568;13.402;2023-05-23T04:41:34;18.30;67.30
782;DHT22;374;52.568;13.402;2023-05-23T04:44:01;18.30;67.40
782;DHT22;374;52.568;13.402;2023-05-23T04:46:26;18.30;67.50
782;DHT22;374;52.568;13.402;2023-05-23T04:48:52;18.30;67.40
782;DHT22;374;52.568;13.402;2023-05-23T04:51:19;18.30;67.80
782;DHT22;374;52.568;13.402;2023-05-23T04:53:48;18.30;67.60
782;DHT22;374;52.568;13.402;2023-05-23T04:56:14;18.30;68.00
782;DHT22;374;52.568;13.402;2023-05-23T04:58:42;18.30;67.60
782;DHT22;374;52.568;13.402;2023-05-23T05:01:09;18.40;68.00
782;DHT22;374;52.568;13.402;2023-05-23T05:03:35;18.30;67.60
782;DHT22;374;52.568;13.402;2023-05-23T05:06:02;18.30;67.70
782;DHT22;374;52.568;13.402;2023-05-23T05:08:28;18.30;68.00
782;DHT22;374;52.568;13.402;2023-05-23T05:10:54;18.20;68.10
782;DHT22;374;52.568;13.402;2023-05-23T05:13:20;18.20;68.40
782;DHT22;374;52.568;13.402;2023-05-23T05:15:45;18.20;69.60
782;DHT22;374;52.568;13.402;2023-05-23T05:18:12;18.20;68.10
782;DHT22;374;52.568;13.402;2023-05-23T05:20:37;18.30;68.30
782;DHT22;374;52.568;13.402;2023-05-23T05:23:03;18.30;68.50
782;DHT22;374;52.568;13.402;2023-05-23T05:25:28;18.30;68.80
782;DHT22;374;52.568;13.402;2023-05-23T05:27:59;18.30;69.40
782;DHT22;374;52.568;13.402;2023-05-23T05:30:27;18.30;69.90
782;DHT22;374;52.568;13.402;2023-05-23T05:32:52;18.30;70.20
782;DHT22;374;52.568;13.402;2023-05-23T05:35:18;18.30;70.10
782;DHT22;374;52.568;13.402;2023-05-23T05:37:43;18.30;70.40
782;DHT22;374;52.568;13.402;2023-05-23T05:40:09;18.30;70.30
782;DHT22;374;52.568;13.402;2023-05-23T05:42:34;18.40;70.20
782;DHT22;374;52.568;13.402;2023-05-23T05:45:00;18.30;70.40
782;DHT22;374;52.568;13.402;2023-05-23T05:47:26;18.40;70.00
782;DHT22;374;52.568;13.402;2023-05-23T05:49:51;18.30;70.10
782;DHT22;374;52.568;13.402;2023-05-23T05:52:17;18.40;70.60
782;DHT22;374;52.568;13.402;2023-05-23T05:54:42;18.30;71.30
782;DHT22;374;52.568;13.402;2023-05-23T05:57:08;18.30;71.80
782;DHT22;374;52.568;13.402;2023-05-23T05:59:33;18.30;72.20
782;DHT22;374;52.568;13.402;2023-05-23T06:01:59;18.30;72.30
782;DHT22;374;52.568;13.402;2023-05-23T06:04:24;18.30;72.50
782;DHT22;374;52.568;13.402;2023-05-23T06:06:50;18.30;73.20
782;DHT22;374;52.568;13.402;2023-05-23T06:09:16;18.30;72.40
782;DHT22;374;52.568;13.402;2023-05-23T06:11:42;18.40;72.70
782;DHT22;374;52.568;13.402;2023-05-23T06:14:07;18.30;72.50
782;DHT22;374;52.568;13.402;2023-05-23T06:16:33;18.30;72.50
782;DHT22;374;52.568;13.402;2023-05-23T06:18:58;18.30;72.70
782;DHT22;374;52.568;13.402;2023-05-23T06:21:24;18.40;72.70
782;DHT22;374;52.568;13.402;2023-05-23T06:23:49;18.40;72.80
782;DHT22;374;52.568;13.402;2023-05-23T06:26:16;18.30;72.20
782;DHT22;374;52.568;13.402;2023-05-23T06:28:42;18.30;72.70
782;DHT22;374;52.568;13.402;2023-05-23T06:31:07;18.30;72.70
782;DHT22;374;52.568;13.402;2023-05-23T06:33:34;18.30;72.10
782;DHT22;374;52.568;13.402;2023-05-23T06:36:00;18.30;72.30
782;DHT22;374;52.568;13.402;2023-05-23T06:38:28;18.30;72.30
782;DHT22;374;52.568;13.402;2023-05-23T06:40:54;18.30;72.40
782;DHT22;374;52.568;13.402;2023-05-23T06:43:19;18.40;72.50
782;DHT22;374;52.568;13.402;2023-05-23T06:45:45;18.40;72.90
782;DHT22;374;52.568;13.402;2023-05-23T06:48:14;18.40;73.10
782;DHT22;374;52.568;13.402;2023-05-23T06:50:39;18.40;73.30
782;DHT22;374;52.568;13.402;2023-05-23T06:53:05;18.40;73.50
782;DHT22;374;52.568;13.402;2023-05-23T06:55:31;18.50;73.80
782;DHT22;374;52.568;13.402;2023-05-23T06:57:58;18.50;73.70
782;DHT22;374;52.568;13.402;2023-05-23T07:00:24;18.50;74.00
782;DHT22;374;52.568;13.402;2023-05-23T07:02:50;18.50;74.30
782;DHT22;374;52.568;13.402;2023-05-23T07:05:15;18.60;75.10
782;DHT22;374;52.568;13.402;2023-05-23T07:07:41;18.60;74.60
782;DHT22;374;52.568;13.402;2023-05-23T07:10:08;18.60;74.30
782;DHT22;374;52.568;13.402;2023-05-23T07:12:34;18.70;74.50
782;DHT22;374;52.568;13.402;2023-05-23T07:14:59;18.80;75.20
782;DHT22;374;52.568;13.402;2023-05-23T07:17:25;18.80;75.10
782;DHT22;374;52.568;13.402;2023-05-23T07:19:50;18.80;74.10
782;DHT22;374;52.568;13.402;2023-05-23T07:22:16;18.90;73.40
782;DHT22;374;52.568;13.402;2023-05-23T07:24:41;18.90;73.70
782;DHT22;374;52.568;13.402;2023-05-23T07:27:06;19.00;73.60
782;DHT22;374;52.568;13.402;2023-05-23T07:29:32;19.00;73.40
782;DHT22;374;52.568;13.402;2023-05-23T07:31:58;19.00;73.40
782;DHT22;374;52.568;13.402;2023-05-23T07:34:23;19.10;73.60
782;DHT22;374;52.568;13.402;2023-05-23T07:36:51;19.10;73.70
782;DHT22;374;52.568;13.402;2023-05-23T07:39:16;19.20;73.70
782;DHT22;374;52.568;13.402;2023-05-23T07:41:46;19.30;73.80
782;DHT22;374;52.568;13.402;2023-05-23T07:44:12;19.30;73.00
782;DHT22;374;52.568;13.402;2023-05-23T07:46:37;19.30;73.10
782;DHT22;374;52.568;13.402;2023-05-23T07:49:03;19.30;73.40
782;DHT22;374;52.568;13.402;2023-05-23T07:51:28;19.40;73.30
782;DHT22;374;52.568;13.402;2023-05-23T07:53:54;19.50;73.30
782;DHT22;374;52.568;13.402;2023-05-23T07:56:19;19.60;72.30
782;DHT22;374;52.568;13.402;2023-05-23T07:58:45;19.60;71.00
782;DHT22;374;52.568;13.402;2023-05-23T08:01:10;19.70;69.20
782;DHT22;374;52.568;13.402;2023-05-23T08:03:36;19.70;69.50
782;DHT22;374;52.568;13.402;2023-05-23T08:06:01;19.80;69.80
782;DHT22;374;52.568;13.402;2023-05-23T08:08:27;19.90;69.90
782;DHT22;374;52.568;13.402;2023-05-23T08:10:52;20.00;69.20
782;DHT22;374;52.568;13.402;2023-05-23T08:13:18;20.10;69.10
782;DHT22;374;52.568;13.402;2023-05-23T08:15:44;20.20;69.20
782;DHT22;374;52.568;13.402;2023-05-23T08:18:09;20.20;69.00
782;DHT22;374;52.568;13.402;2023-05-23T08:20:35;20.30;69.20
782;DHT22;374;52.568;13.402;2023-05-23T08:23:01;20.50;69.00
782;DHT22;374;52.568;13.402;2023-05-23T08:25:27;20.70;68.60
782;DHT22;374;52.568;13.402;2023-05-23T08:27:55;21.10;68.60
782;DHT22;374;52.568;13.402;2023-05-23T08:30:22;21.30;69.40
782;DHT22;374;52.568;13.402;2023-05-23T08:32:47;21.50;67.30
782;DHT22;374;52.568;13.402;2023-05-23T08:35:13;21.40;66.20
782;DHT22;374;52.568;13.402;2023-05-23T08:37:38;21.50;67.10
782;DHT22;374;52.568;13.402;2023-05-23T08:40:06;21.90;67.20
782;DHT22;374;52.568;13.402;2023-05-23T08:42:36;22.10;66.80
782;DHT22;374;52.568;13.402;2023-05-23T08:45:02;22.40;66.70
782;DHT22;374;52.568;13.402;2023-05-23T08:47:28;22.50;65.80
782;DHT22;374;52.568;13.402;2023-05-23T08:49:54;22.40;65.20
782;DHT22;374;52.568;13.402;2023-05-23T08:52:22;22.40;65.50
782;DHT22;374;52.568;13.402;2023-05-23T08:54:49;22.40;65.80
782;DHT22;374;52.568;13.402;2023-05-23T08:57:15;22.50;66.30
782;DHT22;374;52.568;13.402;2023-05-23T08:59:41;22.50;66.10
782;DHT22;374;52.568;13.402;2023-05-23T09:02:10;22.50;66.20
782;DHT22;374;52.568;13.402;2023-05-23T09:04:36;22.70;66.70
782;DHT22;374;52.568;13.402;2023-05-23T09:07:03;23.10;67.10
782;DHT22;374;52.568;13.402;2023-05-23T09:09:28;23.40;66.20
782;DHT22;374;52.568;13.402;2023-05-23T09:11:55;23.50;66.20
782;DHT22;374;52.568;13.402;2023-05-23T09:14:23;23.60;66.40
782;DHT22;374;52.568;13.402;2023-05-23T09:16:49;23.40;66.80
782;DHT22;374;52.568;13.402;2023-05-23T09:19:15;23.40;66.70
782;DHT22;374;52.568;13.402;2023-05-23T09:21:43;23.50;67.60
782;DHT22;374;52.568;13.402;2023-05-23T09:24:10;23.50;66.90
782;DHT22;374;52.568;13.402;2023-05-23T09:26:36;23.50;67.70
782;DHT22;374;52.568;13.402;2023-05-23T09:29:05;23.60;68.20
782;DHT22;374;52.568;13.402;2023-05-23T09:31:31;23.70;67.80
782;DHT22;374;52.568;13.402;2023-05-23T09:33:57;23.80;68.20
782;DHT22;374;52.568;13.402;2023-05-23T09:36:27;23.80;68.00
782;DHT22;374;52.568;13.402;2023-05-23T09:39:02;23.80;68.30
782;DHT22;374;52.568;13.402;2023-05-23T09:41:33;24.00;68.80
782;DHT22;374;52.568;13.402;2023-05-23T09:44:04;24.30;68.70
782;DHT22;374;52.568;13.402;2023-05-23T09:46:33;24.50;68.60
782;DHT22;374;52.568;13.402;2023-05-23T09:48:59;24.60;69.00
782;DHT22;374;52.568;13.402;2023-05-23T09:51:25;24.90;68.10
782;DHT22;374;52.568;13.402;2023-05-23T09:53:50;24.90;68.10
782;DHT22;374;52.568;13.402;2023-05-23T09:56:17;24.80;68.60
782;DHT22;374;52.568;13.402;2023-05-23T09:58:46;24.70;69.00
782;DHT22;374;52.568;13.402;2023-05-23T10:01:12;24.50;69.10
782;DHT22;374;52.568;13.402;2023-05-23T10:03:48;24.30;69.90
782;DHT22;374;52.568;13.402;2023-05-23T10:06:22;24.20;70.70
782;DHT22;374;52.568;13.402;2023-05-23T10:09:04;24.60;70.80
782;DHT22;374;52.568;13.402;2023-05-23T10:14:06;25.10;68.60
782;DHT22;374;52.568;13.402;2023-05-23T10:16:48;25.40;67.80
782;DHT22;374;52.568;13.402;2023-05-23T10:19:26;25.40;67.60
782;DHT22;374;52.568;13.402;2023-05-23T10:21:58;25.60;67.70
782;DHT22;374;52.568;13.402;2023-05-23T10:24:25;25.40;66.10
782;DHT22;374;52.568;13.402;2023-05-23T10:26:54;25.10;65.80
782;DHT22;374;52.568;13.402;2023-05-23T10:29:23;24.90;66.40
782;DHT22;374;52.568;13.402;2023-05-23T10:31:50;24.90;66.70
782;DHT22;374;52.568;13.402;2023-05-23T10:34:24;24.70;67.80
782;DHT22;374;52.568;13.402;2023-05-23T10:37:00;24.70;68.20
782;DHT22;374;52.568;13.402;2023-05-23T10:42:51;24.50;69.90
782;DHT22;374;52.568;13.402;2023-05-23T10:45:20;24.40;70.20
782;DHT22;374;52.568;13.402;2023-05-23T10:47:50;24.30;70.30
782;DHT22;374;52.568;13.402;2023-05-23T10:50:35;24.20;71.20
782;DHT22;374;52.568;13.402;2023-05-23T10:53:05;24.10;72.10
782;DHT22;374;52.568;13.402;2023-05-23T10:55:35;23.90;73.50
782;DHT22;374;52.568;13.402;2023-05-23T10:58:14;23.90;74.40
782;DHT22;374;52.568;13.402;2023-05-23T11:00:52;23.90;76.20
782;DHT22;374;52.568;13.402;2023-05-23T11:09:01;23.70;79.50
782;DHT22;374;52.568;13.402;2023-05-23T11:16:55;23.60;81.00
782;DHT22;374;52.568;13.402;2023-05-23T11:19:22;23.60;80.70
782;DHT22;374;52.568;13.402;2023-05-23T11:22:01;23.60;81.70
782;DHT22;374;52.568;13.402;2023-05-23T11:25:06;23.50;80.90
782;DHT22;374;52.568;13.402;2023-05-23T11:27:35;23.40;80.90
782;DHT22;374;52.568;13.402;2023-05-23T11:30:15;23.20;81.80
782;DHT22;374;52.568;13.402;2023-05-23T11:32:47;23.20;81.60
782;DHT22;374;52.568;13.402;2023-05-23T11:35:15;23.30;82.40
782;DHT22;374;52.568;13.402;2023-05-23T11:37:42;23.20;82.00
782;DHT22;374;52.568;13.402;2023-05-23T11:40:31;23.10;82.60
782;DHT22;374;52.568;13.402;2023-05-23T11:42:57;23.00;83.40
782;DHT22;374;52.568;13.402;2023-05-23T11:45:24;23.00;83.40
782;DHT22;374;52.568;13.402;2023-05-23T11:47:50;22.90;84.40
782;DHT22;374;52.568;13.402;2023-05-23T11:50:15;22.90;84.40
782;DHT22;374;52.568;13.402;2023-05-23T11:52:41;23.00;83.70
782;DHT22;374;52.568;13.402;2023-05-23T11:55:08;23.00;83.80
782;DHT22;374;52.568;13.402;2023-05-23T11:57:37;23.00;84.10
782;DHT22;374;52.568;13.402;2023-05-23T12:00:05;22.90;84.40
782;DHT22;374;52.568;13.402;2023-05-23T12:02:30;22.80;83.70
782;DHT22;374;52.568;13.402;2023-05-23T12:04:56;22.80;83.70
782;DHT22;374;52.568;13.402;2023-05-23T12:07:21;22.60;83.60
782;DHT22;374;52.568;13.402;2023-05-23T12:09:47;22.70;83.50
782;DHT22;374;52.568;13.402;2023-05-23T12:12:13;22.70;83.30
782;DHT22;374;52.568;13.402;2023-05-23T12:14:40;22.80;83.70
782;DHT22;374;52.568;13.402;2023-05-23T12:17:11;22.70;83.20
782;DHT22;374;52.568;13.402;2023-05-23T12:19:38;22.70;83.40
782;DHT22;374;52.568;13.402;2023-05-23T12:22:07;22.70;84.00
782;DHT22;374;52.568;13.402;2023-05-23T12:24:33;22.70;84.70
782;DHT22;374;52.568;13.402;2023-05-23T12:27:00;22.60;84.50
782;DHT22;374;52.568;13.402;2023-05-23T12:29:30;22.50;84.70
782;DHT22;374;52.568;13.402;2023-05-23T12:32:01;22.50;85.30
782;DHT22;374;52.568;13.402;2023-05-23T12:34:27;22.50;85.10
782;DHT22;374;52.568;13.402;2023-05-23T12:36:57;22.40;85.50
782;DHT22;374;52.568;13.402;2023-05-23T12:39:29;22.40;85.50
782;DHT22;374;52.568;13.402;2023-05-23T12:42:10;22.30;85.30
782;DHT22;374;52.568;13.402;2023-05-23T12:44:35;22.30;85.50
782;DHT22;374;52.568;13.402;2023-05-23T12:47:04;22.30;84.80
782;DHT22;374;52.568;13.402;2023-05-23T12:49:30;22.20;85.40
782;DHT22;374;52.568;13.402;2023-05-23T12:51:55;22.20;85.40
782;DHT22;374;52.568;13.402;2023-05-23T12:54:21;22.20;85.30
782;DHT22;374;52.568;13.402;2023-05-23T12:56:46;22.10;85.40
782;DHT22;374;52.568;13.402;2023-05-23T12:59:12;22.10;85.40
782;DHT22;374;52.568;13.402;2023-05-23T13:01:37;22.00;86.10
782;DHT22;374;52.568;13.402;2023-05-23T13:04:03;22.00;86.10
782;DHT22;374;52.568;13.402;2023-05-23T13:06:28;22.00;86.30
782;DHT22;374;52.568;13.402;2023-05-23T13:08:54;22.00;86.80
782;DHT22;374;52.568;13.402;2023-05-23T13:11:20;22.00;86.90
782;DHT22;374;52.568;13.402;2023-05-23T13:13:49;21.90;87.40
782;DHT22;374;52.568;13.402;2023-05-23T13:16:15;21.90;87.70
782;DHT22;374;52.568;13.402;2023-05-23T13:18:41;22.00;87.90
782;DHT22;374;52.568;13.402;2023-05-23T13:21:07;21.90;87.80
782;DHT22;374;52.568;13.402;2023-05-23T13:23:32;21.90;88.00
782;DHT22;374;52.568;13.402;2023-05-23T13:25:58;22.00;88.30
782;DHT22;374;52.568;13.402;2023-05-23T13:28:24;21.90;88.10
782;DHT22;374;52.568;13.402;2023-05-23T13:30:50;21.90;87.80
782;DHT22;374;52.568;13.402;2023-05-23T13:33:15;21.80;87.90
782;DHT22;374;52.568;13.402;2023-05-23T13:35:41;21.80;88.20
782;DHT22;374;52.568;13.402;2023-05-23T13:38:07;21.70;88.60
782;DHT22;374;52.568;13.402;2023-05-23T13:40:32;21.60;88.90
782;DHT22;374;52.568;13.402;2023-05-23T13:42:58;21.60;89.50
782;DHT22;374;52.568;13.402;2023-05-23T13:45:23;21.50;89.60
782;DHT22;374;52.568;13.402;2023-05-23T13:47:49;21.50;90.00
782;DHT22;374;52.568;13.402;2023-05-23T13:50:15;21.50;90.10
782;DHT22;374;52.568;13.402;2023-05-23T13:52:41;21.40;90.10
782;DHT22;374;52.568;13.402;2023-05-23T13:55:08;21.30;90.60
782;DHT22;374;52.568;13.402;2023-05-23T13:57:33;21.30;90.40
782;DHT22;374;52.568;13.402;2023-05-23T13:59:59;21.20;90.40
782;DHT22;374;52.568;13.402;2023-05-23T14:02:24;21.20;90.50
782;DHT22;374;52.568;13.402;2023-05-23T14:04:51;21.10;90.60
782;DHT22;374;52.568;13.402;2023-05-23T14:07:17;21.10;90.70
782;DHT22;374;52.568;13.402;2023-05-23T14:09:43;21.10;90.80
782;DHT22;374;52.568;13.402;2023-05-23T14:12:08;21.10;90.90
782;DHT22;374;52.568;13.402;2023-05-23T14:14:34;21.00;90.90
782;DHT22;374;52.568;13.402;2023-05-23T14:17:00;21.00;91.00
782;DHT22;374;52.568;13.402;2023-05-23T14:19:25;21.00;91.10
782;DHT22;374;52.568;13.402;2023-05-23T14:21:50;20.90;91.20
782;DHT22;374;52.568;13.402;2023-05-23T14:24:16;20.80;91.40
782;DHT22;374;52.568;13.402;2023-05-23T14:26:41;20.80;91.50
782;DHT22;374;52.568;13.402;2023-05-23T14:29:07;20.80;91.60
782;DHT22;374;52.568;13.402;2023-05-23T14:31:32;20.80;91.80
782;DHT22;374;52.568;13.402;2023-05-23T14:33:58;20.70;91.80
782;DHT22;374;52.568;13.402;2023-05-23T14:36:24;20.70;92.00
782;DHT22;374;52.568;13.402;2023-05-23T14:38:50;20.70;92.00
782;DHT22;374;52.568;13.402;2023-05-23T14:41:16;20.70;92.20
782;DHT22;374;52.568;13.402;2023-05-23T14:43:41;20.70;92.20
782;DHT22;374;52.568;13.402;2023-05-23T14:46:07;20.60;92.30
782;DHT22;374;52.568;13.402;2023-05-23T14:48:33;20.60;92.30
782;DHT22;374;52.568;13.402;2023-05-23T14:50:58;20.60;92.50
782;DHT22;374;52.568;13.402;2023-05-23T14:53:29;20.60;92.50
782;DHT22;374;52.568;13.402;2023-05-23T14:55:55;20.60;92.60
782;DHT22;374;52.568;13.402;2023-05-23T14:58:21;20.50;92.50
782;DHT22;374;52.568;13.402;2023-05-23T15:00:47;20.50;92.70
782;DHT22;374;52.568;13.402;2023-05-23T15:03:13;20.50;92.60
782;DHT22;374;52.568;13.402;2023-05-23T15:05:39;20.30;92.40
782;DHT22;374;52.568;13.402;2023-05-23T15:08:05;20.20;92.40
782;DHT22;374;52.568;13.402;2023-05-23T15:10:30;20.10;92.30
782;DHT22;374;52.568;13.402;2023-05-23T15:12:56;20.10;91.80
782;DHT22;374;52.568;13.402;2023-05-23T15:15:22;20.10;91.70
782;DHT22;374;52.568;13.402;2023-05-23T15:17:48;20.00;91.50
782;DHT22;374;52.568;13.402;2023-05-23T15:20:15;20.00;91.40
782;DHT22;374;52.568;13.402;2023-05-23T15:22:41;20.00;91.20
782;DHT22;374;52.568;13.402;2023-05-23T15:25:07;19.90;91.20
782;DHT22;374;52.568;13.402;2023-05-23T15:27:33;19.90;91.10
782;DHT22;374;52.568;13.402;2023-05-23T15:29:59;19.90;91.10
782;DHT22;374;52.568;13.402;2023-05-23T15:32:27;19.80;91.20
782;DHT22;374;52.568;13.402;2023-05-23T15:34:53;19.70;91.30
782;DHT22;374;52.568;13.402;2023-05-23T15:37:18;19.70;91.20
782;DHT22;374;52.568;13.402;2023-05-23T15:39:44;19.60;91.20
782;DHT22;374;52.568;13.402;2023-05-23T15:42:09;19.60;91.00
782;DHT22;374;52.568;13.402;2023-05-23T15:44:35;19.60;91.00
782;DHT22;374;52.568;13.402;2023-05-23T15:47:00;19.60;90.90
782;DHT22;374;52.568;13.402;2023-05-23T15:49:26;19.50;90.90
782;DHT22;374;52.568;13.402;2023-05-23T15:51:51;19.50;91.10
782;DHT22;374;52.568;13.402;2023-05-23T15:54:18;19.50;91.10
782;DHT22;374;52.568;13.402;2023-05-23T15:56:43;19.40;91.30
782;DHT22;374;52.568;13.402;2023-05-23T15:59:09;19.30;92.20
782;DHT22;374;52.568;13.402;2023-05-23T16:01:35;19.20;93.40
782;DHT22;374;52.568;13.402;2023-05-23T16:04:00;19.20;94.00
782;DHT22;374;52.568;13.402;2023-05-23T16:06:26;19.00;94.70
782;DHT22;374;52.568;13.402;2023-05-23T16:08:53;18.90;95.40
782;DHT22;374;52.568;13.402;2023-05-23T16:11:19;18.90;96.70
782;DHT22;374;52.568;13.402;2023-05-23T16:13:46;18.90;98.10
782;DHT22;374;52.568;13.402;2023-05-23T16:16:11;18.80;98.80
782;DHT22;374;52.568;13.402;2023-05-23T16:18:37;18.70;99.10
782;DHT22;374;52.568;13.402;2023-05-23T16:21:05;18.50;99.70
782;DHT22;374;52.568;13.402;2023-05-23T16:23:31;18.40;99.90
782;DHT22;374;52.568;13.402;2023-05-23T16:25:56;18.40;99.90
782;DHT22;374;52.568;13.402;2023-05-23T16:28:22;18.30;99.90
782;DHT22;374;52.568;13.402;2023-05-23T16:30:49;18.20;99.90
782;DHT22;374;52.568;13.402;2023-05-23T16:33:14;18.10;99.90